Flight Track Log - Related Links

Times and Time Zones

All times are in EDT time to prevent confusion due to time zone crossing. See the UPS1121 flight status page for this flight to view local times or setup timezone preferences in your user account.

Time Position Orientation Groundspeed Altitude Reporting Facility
EDT Latitude Longitude Course Direction KTS MPH feet Rate Location/Type
Thu 08:36:57 PM 42.7589 -73.8058 348° North 136 157 1,600  Level Boston Center
Thu 08:37:34 PM 42.7903 -73.8150 348° North 176 203 2,700 2,154 Climbing Boston Center
Thu 08:38:15 PM 42.8172 -73.8072 12° North 203 234 4,400 3,208 Climbing Boston Center
Thu 08:39:15 PM 42.7933 -73.7217 111° Southeast 196 226 8,100 3,200 Climbing Boston Center
Thu 08:40:15 PM 42.7272 -73.6611 146° Southeast 241 277 10,800 1,450 Climbing Boston Center
Thu 08:41:15 PM 42.6572 -73.5947 145° Southeast 321 369 11,000 100 Climbing Boston Center
Thu 08:42:15 PM 42.5661 -73.5169 148° Southeast 351 404 11,000  Level Boston Center
Thu 08:42:31 PM 42.5392 -73.4967 151° Southeast 349 402 11,000  Level Boston Center
Thu 08:43:01 PM 42.5000 -73.4650 149° Southeast 351 404 11,000  Level Boston Center
Thu 08:44:15 PM 42.4008 -73.3764 147° Southeast 351 404 11,000  Level Boston Center
Thu 08:45:09 PM 42.3219 -73.3133 149° Southeast 352 405 11,000  Level Boston Center
Thu 08:46:03 PM 42.2475 -73.2478 147° Southeast 351 404 11,000 -626 Level Boston Center
Thu 08:47:04 PM 42.1750 -73.1853 147° Southeast 309 356 9,800 -1,488 Descending Boston Center
Thu 08:48:04 PM 42.1067 -73.1286 148° Southeast 291 335 8,000 -1,565 Descending Boston Center
Thu 08:48:59 PM 42.0483 -73.0775 147° Southeast 276 318 6,800 -1,183 Descending Boston Center
Thu 08:49:15 PM 42.0422 -73.0692 135° Southeast 280 322 6,600 -873 Descending Boston Center
Thu 08:49:54 PM 41.9986 -73.0350 150° Southeast 253 291 6,000 -1,000 Descending Boston Center
Thu 08:50:15 PM 41.9800 -73.0153 142° Southeast 253 291 5,600 -1,500 Descending Boston Center
Thu 08:50:54 PM 41.9467 -72.9928 153° Southeast 205 236 4,500 -1,700 Descending Boston Center
Thu 08:51:15 PM 41.9322 -72.9786 144° Southeast 225 259 3,900 -1,770 Descending Boston Center
Thu 08:51:55 PM 41.9033 -72.9478 142° Southeast 200 230 2,700 -1,167 Descending Boston Center
Thu 08:52:27 PM 41.8825 -72.9281 145° Southeast 205 236 2,500 -100 Descending Boston Center
Thu 08:52:55 PM 41.8639 -72.9139 150° Southeast 159 183 2,600  Climbing Boston Center
Thu 08:53:39 PM 41.8453 -72.8861 132° Southeast 166 191 2,500  Descending Boston Center
Thu 08:53:56 PM 41.8369 -72.8747 134° Southeast 148 170 2,600  Climbing Boston Center
Thu 08:54:39 PM 41.8369 -72.8386 90° East 127 146 2,500 -98 Descending Boston Center
Thu 08:54:57 PM 41.8433 -72.8247 58° Northeast 140 161 2,500 -100 Level Boston Center
Thu 08:55:39 PM 41.8539 -72.7969 63° Northeast 122 140 2,400 -300 Descending Boston Center
Thu 08:55:57 PM 41.8600 -72.7942 19° North 108 124 2,200 -500 Descending Boston Center
Thu 08:56:39 PM 41.8747 -72.7747 45° Northeast 99 114 1,900 -492 Descending Boston Center
Thu 08:56:58 PM 41.8789 -72.7692 45° Northeast 93 107 1,700 -532 Descending Boston Center
Thu 08:57:58 PM 41.8978 -72.7442 45° Northeast 91 105 1,200 -545 Descending Boston Center
Thu 08:58:59 PM 41.9167 -72.7192 45° Northeast 96 110 600 -590 Descending Boston Center
Thu 09:00:00 PM 41.9333 -72.6833 45° Northeast  Level FlightAware Approximate
Thu 09:07:00 PM 41.9392 -72.6834 45° Northeast  Level Estimated
Thu 09:08:00 PM 41.9333 -72.6833 45° Northeast  Level FlightAware Approximate

Login

Don't have an account? Register now (free) for customized features, flight alerts, and more!